GPH weather

Public forecast

Using degrees Fahrenheit for public forecast. Weather courtesy of forecast.io.

Current aviation weather report (METAR) for Midwest National Air Center Airport

Retrieved 2020/08/14 03:15 UTC (2 hours ago):

KGPH 140315Z AUTO 00000KT 10SM CLR 25/22 A2998 RMK AO2

Closest aviation forecast (TAF) to Midwest National Air Center Airport

Closest forecast is Charles B. Wheeler Downtown Airport, 18.2 nm (33.7 km) SW. Retrieved 2020-08-14 00:22 UTC (4 hours ago):

TAF KMKC 132320Z 1400/1424 10006KT P6SM FEW045 FM140600 10003KT P6SM SKC FM141300 11007KT P6SM BKN250